createdAt,value
2022-09-24T00:17:21.782Z,100
2022-09-24T00:37:23.029Z,100
2022-09-24T00:47:23.357Z,100
2022-09-24T00:57:24.299Z,100
2022-09-24T01:07:24.560Z,100
2022-09-24T01:17:24.687Z,100
2022-09-24T01:27:25.564Z,100
2022-09-24T01:37:26.439Z,100
2022-09-24T01:47:29.914Z,100
2022-09-24T01:57:27.728Z,100
2022-09-24T02:07:28.632Z,100
2022-09-24T02:17:28.922Z,100
2022-09-24T02:37:29.515Z,100
2022-09-24T02:47:29.634Z,100
2022-09-24T02:57:30.586Z,100
2022-09-24T03:07:31.569Z,100
2022-09-24T03:17:32.248Z,100
2022-09-24T03:27:32.598Z,100
2022-09-24T03:47:33.570Z,100
2022-09-24T03:57:33.682Z,100
2022-09-24T04:07:34.689Z,100
2022-09-24T04:17:35.519Z,100
2022-09-24T04:37:36.521Z,100
2022-09-24T04:47:37.543Z,100
2022-09-24T04:57:38.537Z,100
2022-09-24T05:07:38.744Z,100
2022-09-24T05:17:38.844Z,100
2022-09-24T05:27:39.857Z,100
2022-09-24T05:47:41.265Z,100
2022-09-24T05:57:41.592Z,100
2022-09-24T06:17:42.344Z,100
2022-09-24T06:27:42.778Z,100
2022-09-24T06:37:43.012Z,100
2022-09-24T06:47:43.200Z,100
2022-09-24T06:57:43.794Z,100
2022-09-24T07:07:44.255Z,100
2022-09-24T07:17:45.098Z,100
2022-09-24T07:27:45.528Z,100
2022-09-24T07:47:46.575Z,100
2022-09-24T07:57:47.506Z,100
2022-09-24T08:07:48.219Z,100
2022-09-24T08:17:48.434Z,100
2022-09-24T08:27:49.178Z,100
2022-09-24T08:37:50.151Z,100
2022-09-24T08:47:50.934Z,100
2022-09-24T08:57:51.431Z,100
2022-09-24T09:07:51.803Z,100
2022-09-24T09:17:52.859Z,100
2022-09-24T09:27:53.113Z,100
2022-09-24T09:47:54.228Z,100
2022-09-24T09:57:54.801Z,100
2022-09-24T10:07:54.964Z,100
2022-09-24T10:17:55.277Z,100
2022-09-24T10:27:55.794Z,98
2022-09-24T10:37:56.313Z,96
2022-09-24T10:57:57.899Z,95
2022-09-24T11:07:58.871Z,94
2022-09-24T11:17:59.946Z,91
2022-09-24T11:28:00.889Z,91
2022-09-24T11:38:01.179Z,91
2022-09-24T11:58:02.221Z,92
2022-09-24T12:08:03.225Z,92
2022-09-24T12:18:04.218Z,90
2022-09-24T12:28:04.748Z,89
2022-09-24T12:38:05.781Z,88
2022-09-24T12:48:06.823Z,88
2022-09-24T12:58:07.632Z,88
2022-09-24T13:08:08.131Z,88
2022-09-24T13:18:08.319Z,87
2022-09-24T13:28:08.432Z,86
2022-09-24T13:38:09.123Z,87
2022-09-24T13:58:10.631Z,87
2022-09-24T14:08:11.600Z,87
2022-09-24T14:18:12.967Z,87
2022-09-24T14:58:14.306Z,86
2022-09-24T15:08:14.780Z,86
2022-09-24T15:18:15.133Z,86
2022-09-24T15:28:15.895Z,86
2022-09-24T15:38:16.907Z,87
2022-09-24T15:48:17.885Z,88
2022-09-24T15:58:19.552Z,89
2022-09-24T16:08:19.504Z,89
2022-09-24T16:18:20.042Z,89
2022-09-24T16:28:20.336Z,90
2022-09-24T16:38:22.990Z,90
2022-09-24T16:48:20.955Z,91
2022-09-24T16:58:21.494Z,90
2022-09-24T17:08:21.927Z,90
2022-09-24T17:18:22.403Z,91
2022-09-24T17:28:22.826Z,91
2022-09-24T17:38:23.787Z,92
2022-09-24T17:48:24.447Z,92
2022-09-24T17:58:24.611Z,94
2022-09-24T18:08:25.603Z,94
2022-09-24T18:18:25.995Z,95
2022-09-24T18:28:26.661Z,95
2022-09-24T18:38:27.332Z,96
2022-09-24T18:48:28.339Z,96
2022-09-24T18:58:28.465Z,97
2022-09-24T19:18:29.337Z,98
2022-09-24T19:28:29.691Z,99
2022-09-24T19:38:30.648Z,98
2022-09-24T19:48:31.165Z,99
2022-09-24T20:18:32.474Z,100
2022-09-24T20:38:33.936Z,100
2022-09-24T20:48:34.037Z,100
2022-09-24T21:08:34.951Z,100
2022-09-24T21:18:39.755Z,100
2022-09-24T21:38:37.106Z,100
2022-09-24T21:48:37.649Z,100
2022-09-24T21:58:38.416Z,100
2022-09-24T22:08:39.263Z,100
2022-09-24T22:18:40.022Z,100
2022-09-24T22:28:40.373Z,100
2022-09-24T22:38:40.597Z,100
2022-09-24T22:48:40.950Z,100
2022-09-24T22:58:41.953Z,100
2022-09-24T23:08:42.232Z,100
2022-09-24T23:18:42.412Z,100
2022-09-24T23:28:42.737Z,100
2022-09-24T23:48:43.231Z,100
2022-09-24T23:58:44.168Z,100
